createdAt,value
2018-09-23T00:01:50.022Z,101331.02
2018-09-23T00:04:18.521Z,101327.03
2018-09-23T00:06:47.042Z,101335.64
2018-09-23T00:09:15.440Z,101340.78
2018-09-23T00:11:43.815Z,101338.99
2018-09-23T00:14:12.205Z,101343.27
2018-09-23T00:16:40.624Z,101342.78
2018-09-23T00:19:09.016Z,101346.63
2018-09-23T00:21:37.391Z,101337.91
2018-09-23T00:24:05.791Z,101339.59
2018-09-23T00:26:34.200Z,101335.64
2018-09-23T00:29:02.597Z,101330.82
2018-09-23T00:31:30.981Z,101324.66
2018-09-23T00:33:59.393Z,101331.14
2018-09-23T00:36:27.766Z,101337.54
2018-09-23T00:38:56.182Z,101334.45
2018-09-23T00:41:24.557Z,101325.78
2018-09-23T00:43:52.950Z,101336.08
2018-09-23T00:46:21.336Z,101333.42
2018-09-23T00:48:49.740Z,101334.22
2018-09-23T00:51:18.112Z,101335.03
2018-09-23T00:53:46.517Z,101331.52
2018-09-23T00:56:14.890Z,101324.54
2018-09-23T00:58:43.294Z,101326.64
2018-09-23T01:01:11.667Z,101327.02
2018-09-23T01:03:40.091Z,101331.71
2018-09-23T01:06:08.475Z,101327.33
2018-09-23T01:08:36.870Z,101322.07
2018-09-23T01:11:05.234Z,101316.78
2018-09-23T01:13:33.631Z,101322.35
2018-09-23T01:16:02.002Z,101320.12
2018-09-23T01:18:30.406Z,101316.61
2018-09-23T01:20:58.782Z,101315.69
2018-09-23T01:23:27.167Z,101325.18
2018-09-23T01:25:55.670Z,101322.96
2018-09-23T01:28:24.066Z,101323.77
2018-09-23T01:30:52.442Z,101331.05
2018-09-23T01:33:20.849Z,101328.39
2018-09-23T01:35:49.278Z,101326.17
2018-09-23T01:38:17.676Z,101327.38
2018-09-23T01:40:46.139Z,101321.69
2018-09-23T01:43:14.529Z,101328.58
2018-09-23T01:45:42.902Z,101328.95
2018-09-23T01:48:11.316Z,101318.96
2018-09-23T01:50:39.694Z,101315.88
2018-09-23T01:53:08.069Z,101308.47
2018-09-23T01:55:36.466Z,101310.61
2018-09-23T01:58:04.842Z,101315.73
2018-09-23T02:00:33.278Z,101319.97
2018-09-23T02:03:01.659Z,101317.75
2018-09-23T02:05:30.074Z,101318.98
2018-09-23T02:07:58.446Z,101310.29
2018-09-23T02:10:26.842Z,101313.28
2018-09-23T02:12:55.217Z,101318.80
2018-09-23T02:15:23.606Z,101323.53
2018-09-23T02:17:51.979Z,101325.65
2018-09-23T02:20:20.370Z,101326.88
2018-09-23T02:22:48.754Z,101322.48
2018-09-23T02:25:17.162Z,101326.75
2018-09-23T02:27:45.562Z,101323.28
2018-09-23T02:30:13.959Z,101321.97
2018-09-23T02:32:42.327Z,101320.17
2018-09-23T02:35:10.719Z,101315.75
2018-09-23T02:37:39.084Z,101307.48
2018-09-23T02:40:07.606Z,101301.85
2018-09-23T02:42:35.982Z,101302.70
2018-09-23T02:45:04.397Z,101297.89
2018-09-23T02:47:32.762Z,101294.83
2018-09-23T02:50:01.159Z,101289.20
2018-09-23T02:52:29.529Z,101285.23
2018-09-23T02:54:57.922Z,101279.58
2018-09-23T02:57:26.290Z,101281.72
2018-09-23T02:59:54.702Z,101276.96
2018-09-23T03:02:23.078Z,101267.89
2018-09-23T03:04:51.476Z,101275.66
2018-09-23T03:07:19.853Z,101272.20
2018-09-23T03:09:48.247Z,101271.73
2018-09-23T03:12:16.610Z,101270.86
2018-09-23T03:14:44.994Z,101274.30
2018-09-23T03:17:13.353Z,101271.66
2018-09-23T03:19:42.270Z,101267.33
2018-09-23T03:22:10.638Z,101261.22
2018-09-23T03:24:39.037Z,101263.33
2018-09-23T03:27:07.422Z,101268.51
2018-09-23T03:29:35.813Z,101267.20
2018-09-23T03:32:04.192Z,101265.41
2018-09-23T03:34:32.595Z,101264.92
2018-09-23T03:37:00.959Z,101262.70
2018-09-23T03:39:29.345Z,101257.95
2018-09-23T03:41:57.710Z,101253.93
2018-09-23T03:44:26.106Z,101250.45
2018-09-23T03:46:54.481Z,101248.23
2018-09-23T03:49:22.878Z,101247.31
2018-09-23T03:51:51.257Z,101251.56
2018-09-23T03:54:19.668Z,101250.25
2018-09-23T03:56:48.062Z,101246.25
2018-09-23T03:59:16.426Z,101255.31
2018-09-23T04:01:44.814Z,101248.39
2018-09-23T04:04:13.179Z,101250.12
2018-09-23T04:06:41.576Z,101248.82
2018-09-23T04:09:09.943Z,101246.60
2018-09-23T04:11:38.379Z,101250.93
2018-09-23T04:14:06.908Z,101238.41
2018-09-23T04:16:35.528Z,101242.30
2018-09-23T04:19:03.898Z,101240.94
2018-09-23T04:21:32.358Z,101244.38
2018-09-23T04:24:00.754Z,101241.34
2018-09-23T04:26:29.165Z,101236.96
2018-09-23T04:28:57.530Z,101242.14
2018-09-23T04:31:26.008Z,101241.22
2018-09-23T04:33:54.378Z,101241.64
2018-09-23T04:36:22.770Z,101240.34
2018-09-23T04:38:51.145Z,101247.63
2018-09-23T04:41:19.583Z,101244.59
2018-09-23T04:43:47.958Z,101243.73
2018-09-23T04:46:16.350Z,101244.59
2018-09-23T04:48:44.717Z,101240.21
2018-09-23T04:51:13.106Z,101237.63
2018-09-23T04:53:41.481Z,101238.92
2018-09-23T04:56:09.870Z,101238.86
2018-09-23T04:58:38.230Z,101231.94
2018-09-23T05:01:06.630Z,101234.16
2018-09-23T05:03:35.026Z,101231.09
2018-09-23T05:06:03.417Z,101228.50
2018-09-23T05:08:31.782Z,101235.45
2018-09-23T05:11:00.174Z,101234.98
2018-09-23T05:13:28.554Z,101238.44
2018-09-23T05:15:56.946Z,101240.21
2018-09-23T05:18:25.322Z,101238.49
2018-09-23T05:20:53.717Z,101235.95
2018-09-23T05:23:22.083Z,101233.45
2018-09-23T05:25:50.503Z,101230.01
2018-09-23T05:28:19.109Z,101226.63
2018-09-23T05:30:47.508Z,101228.42
2018-09-23T05:33:15.874Z,101223.72
2018-09-23T05:35:44.266Z,101234.20
2018-09-23T05:38:12.657Z,101229.53
2018-09-23T05:40:41.078Z,101233.06
2018-09-23T05:43:09.455Z,101235.73
2018-09-23T05:45:37.837Z,101239.69
2018-09-23T05:48:06.233Z,101240.23
2018-09-23T05:50:34.606Z,101234.76
2018-09-23T05:53:03.005Z,101237.92
2018-09-23T05:55:31.376Z,101237.22
2018-09-23T05:57:59.771Z,101235.22
2018-09-23T06:00:30.610Z,101227.19
2018-09-23T06:02:59.056Z,101232.55
2018-09-23T06:05:27.405Z,101227.92
2018-09-23T06:07:55.793Z,101237.13
2018-09-23T06:10:24.164Z,101239.40
2018-09-23T06:12:52.562Z,101237.31
2018-09-23T06:15:20.930Z,101231.75
2018-09-23T06:17:49.322Z,101235.74
2018-09-23T06:20:17.695Z,101224.99
2018-09-23T06:22:46.086Z,101224.66
2018-09-23T06:25:14.487Z,101233.37
2018-09-23T06:27:42.905Z,101237.31
2018-09-23T06:30:11.277Z,101233.11
2018-09-23T06:32:39.678Z,101228.05
2018-09-23T06:35:08.073Z,101230.81
2018-09-23T06:37:36.466Z,101231.41
2018-09-23T06:40:05.353Z,101232.06
2018-09-23T06:42:33.755Z,101224.88
2018-09-23T06:45:02.131Z,101226.77
2018-09-23T06:47:30.546Z,101234.76
2018-09-23T06:49:58.934Z,101235.36
2018-09-23T06:52:27.333Z,101230.70
2018-09-23T06:54:55.706Z,101228.25
2018-09-23T06:57:24.124Z,101233.12
2018-09-23T06:59:53.265Z,101237.11
2018-09-23T07:02:21.656Z,101242.02
2018-09-23T07:04:50.051Z,101250.78
2018-09-23T07:07:18.498Z,101255.72
2018-09-23T07:09:47.261Z,101256.25
2018-09-23T07:12:15.742Z,101253.80
2018-09-23T07:14:44.118Z,101256.50
2018-09-23T07:17:12.519Z,101252.28
2018-09-23T07:19:40.895Z,101249.78
2018-09-23T07:22:09.294Z,101257.79
2018-09-23T07:24:37.751Z,101247.05
2018-09-23T07:27:06.166Z,101250.64
2018-09-23T07:29:34.541Z,101255.53
2018-09-23T07:32:02.982Z,101261.26
2018-09-23T07:34:31.358Z,101250.11
2018-09-23T07:36:59.842Z,101262.83
2018-09-23T07:39:28.150Z,101264.18
2018-09-23T07:41:56.554Z,101258.19
2018-09-23T07:44:24.926Z,101261.33
2018-09-23T07:46:53.337Z,101259.24
2018-09-23T07:49:21.709Z,101264.13
2018-09-23T07:51:50.082Z,101254.29
2018-09-23T07:54:18.491Z,101255.27
2018-09-23T07:56:46.877Z,101249.25
2018-09-23T07:59:15.273Z,101248.45
2018-09-23T08:01:43.663Z,101252.86
2018-09-23T08:04:12.266Z,101254.66
2018-09-23T08:06:40.642Z,101252.96
2018-09-23T08:09:10.054Z,101254.73
2018-09-23T08:11:39.022Z,101239.56
2018-09-23T08:14:08.070Z,101234.88
2018-09-23T08:16:36.146Z,101240.59
2018-09-23T08:19:04.544Z,101237.23
2018-09-23T08:21:32.937Z,101229.94
2018-09-23T08:24:01.338Z,101226.95
2018-09-23T08:26:29.758Z,101219.57
2018-09-23T08:28:58.150Z,101218.32
2018-09-23T08:31:26.526Z,101217.91
2018-09-23T08:33:54.922Z,101213.16
2018-09-23T08:36:23.297Z,101215.80
2018-09-23T08:38:51.722Z,101215.44
2018-09-23T08:41:20.098Z,101216.35
2018-09-23T08:43:48.493Z,101208.98
2018-09-23T08:46:16.882Z,101211.67
2018-09-23T08:48:45.305Z,101216.06
2018-09-23T08:51:15.438Z,101207.41
2018-09-23T08:53:43.831Z,101200.50
2018-09-23T08:56:12.300Z,101196.66
2018-09-23T08:58:40.706Z,101191.92
2018-09-23T09:01:09.076Z,101192.00
2018-09-23T09:03:37.485Z,101186.39
2018-09-23T09:06:05.879Z,101179.08
2018-09-23T09:08:34.274Z,101166.50
2018-09-23T09:11:02.657Z,101168.71
2018-09-23T09:13:31.054Z,101175.77
2018-09-23T09:15:59.426Z,101171.44
2018-09-23T09:18:27.918Z,101168.45
2018-09-23T09:20:56.226Z,101164.56
2018-09-23T09:23:24.618Z,101162.84
2018-09-23T09:25:53.014Z,101168.07
2018-09-23T09:28:21.406Z,101168.10
2018-09-23T09:30:49.777Z,101179.89
2018-09-23T09:33:18.170Z,101176.88
2018-09-23T09:35:46.638Z,101176.47
2018-09-23T09:38:15.031Z,101176.93
2018-09-23T09:40:43.423Z,101176.53
2018-09-23T09:43:11.819Z,101173.02
2018-09-23T09:45:40.192Z,101167.36
2018-09-23T09:48:08.598Z,101172.17
2018-09-23T09:50:36.978Z,101174.81
2018-09-23T09:53:05.360Z,101161.30
2018-09-23T09:55:33.775Z,101166.97
2018-09-23T09:58:02.155Z,101157.81
2018-09-23T10:00:34.297Z,101147.79
2018-09-23T10:03:03.578Z,101140.38
2018-09-23T10:05:31.982Z,101142.13
2018-09-23T10:08:00.426Z,101143.88
2018-09-23T10:10:28.846Z,101140.81
2018-09-23T10:12:57.222Z,101135.98
2018-09-23T10:15:25.641Z,101134.22
2018-09-23T10:17:54.013Z,101140.30
2018-09-23T10:20:22.410Z,101121.52
2018-09-23T10:22:50.803Z,101122.34
2018-09-23T10:25:19.246Z,101127.09
2018-09-23T10:27:47.623Z,101126.63
2018-09-23T10:30:16.019Z,101118.70
2018-09-23T10:32:44.395Z,101109.93
2018-09-23T10:35:12.800Z,101108.60
2018-09-23T10:37:41.175Z,101111.17
2018-09-23T10:40:09.570Z,101114.63
2018-09-23T10:42:37.954Z,101111.11
2018-09-23T10:45:06.528Z,101115.47
2018-09-23T10:47:34.911Z,101114.61
2018-09-23T10:50:03.306Z,101102.80
2018-09-23T10:52:31.685Z,101094.95
2018-09-23T10:55:00.091Z,101084.87
2018-09-23T10:57:28.462Z,101078.32
2018-09-23T10:59:56.858Z,101073.49
2018-09-23T11:02:25.221Z,101080.02
2018-09-23T11:04:53.614Z,101079.57
2018-09-23T11:07:22.041Z,101068.66
2018-09-23T11:09:50.638Z,101063.86
2018-09-23T11:12:19.124Z,101060.83
2018-09-23T11:14:47.526Z,101057.73
2018-09-23T11:17:15.917Z,101052.00
2018-09-23T11:19:44.318Z,101049.80
2018-09-23T11:22:12.733Z,101047.20
2018-09-23T11:24:41.134Z,101050.24
2018-09-23T11:27:09.534Z,101036.27
2018-09-23T11:29:37.931Z,101045.93
2018-09-23T11:32:06.526Z,101037.64
2018-09-23T11:34:34.937Z,101036.37
2018-09-23T11:37:03.301Z,101032.05
2018-09-23T11:39:31.718Z,101027.70
2018-09-23T11:42:00.190Z,101023.83
2018-09-23T11:44:28.561Z,101028.20
2018-09-23T11:46:56.969Z,101034.79
2018-09-23T11:49:25.342Z,101029.58
2018-09-23T11:51:53.733Z,101024.80
2018-09-23T11:54:22.106Z,101032.25
2018-09-23T11:56:50.502Z,101023.97
2018-09-23T11:59:18.897Z,101020.95
2018-09-23T12:01:47.286Z,101019.64
2018-09-23T12:04:15.666Z,101012.25
2018-09-23T12:06:44.062Z,101008.77
2018-09-23T12:09:13.603Z,101001.79
2018-09-23T12:11:41.999Z,100996.19
2018-09-23T12:14:10.866Z,100985.31
2018-09-23T12:16:39.262Z,100972.67
2018-09-23T12:19:07.630Z,100962.70
2018-09-23T12:21:36.030Z,100954.86
2018-09-23T12:24:04.406Z,100953.99
2018-09-23T12:26:32.829Z,100952.70
2018-09-23T12:29:01.236Z,100947.50
2018-09-23T12:31:29.645Z,100935.72
2018-09-23T12:33:58.022Z,100917.84
2018-09-23T12:36:26.429Z,100924.38
2018-09-23T12:38:54.805Z,100925.27
2018-09-23T12:41:23.206Z,100921.78
2018-09-23T12:43:51.599Z,100916.08
2018-09-23T12:46:20.007Z,100921.34
2018-09-23T12:48:48.382Z,100909.58
2018-09-23T12:51:16.778Z,100907.41
2018-09-23T12:53:45.158Z,100902.17
2018-09-23T12:56:13.660Z,100893.02
2018-09-23T12:58:42.041Z,100894.77
2018-09-23T13:01:10.429Z,100903.08
2018-09-23T13:03:38.803Z,100900.94
2018-09-23T13:06:07.210Z,100901.34
2018-09-23T13:08:35.592Z,100900.52
2018-09-23T13:11:03.993Z,100897.03
2018-09-23T13:13:32.362Z,100891.79
2018-09-23T13:16:00.768Z,100896.61
2018-09-23T13:18:29.141Z,100899.22
2018-09-23T13:20:57.546Z,100895.76
2018-09-23T13:23:25.914Z,100884.00
2018-09-23T13:25:54.378Z,100897.52
2018-09-23T13:28:22.758Z,100894.95
2018-09-23T13:30:51.170Z,100889.28
2018-09-23T13:33:19.569Z,100887.55
2018-09-23T13:35:47.943Z,100882.30
2018-09-23T13:38:16.516Z,100873.14
2018-09-23T13:40:44.898Z,100877.09
2018-09-23T13:43:13.289Z,100876.22
2018-09-23T13:45:41.661Z,100874.04
2018-09-23T13:48:10.049Z,100879.27
2018-09-23T13:50:38.425Z,100874.92
2018-09-23T13:53:06.823Z,100864.92
2018-09-23T13:55:35.204Z,100855.77
2018-09-23T13:58:03.598Z,100838.77
2018-09-23T14:00:31.975Z,100833.54
2018-09-23T14:03:00.370Z,100823.50
2018-09-23T14:05:28.744Z,100812.16
2018-09-23T14:07:57.146Z,100787.73
2018-09-23T14:10:25.534Z,100787.31
2018-09-23T14:12:53.934Z,100773.77
2018-09-23T14:15:22.314Z,100761.59
2018-09-23T14:17:50.707Z,100780.78
2018-09-23T14:20:19.082Z,100768.17
2018-09-23T14:22:47.482Z,100773.41
2018-09-23T14:25:15.875Z,100781.28
2018-09-23T14:27:44.274Z,100751.67
2018-09-23T14:30:12.651Z,100731.64
2018-09-23T14:32:41.055Z,100760.42
2018-09-23T14:35:09.439Z,100758.69
2018-09-23T14:37:37.870Z,100750.84
2018-09-23T14:40:06.242Z,100750.42
2018-09-23T14:42:34.686Z,100746.10
2018-09-23T14:45:03.041Z,100728.69
2018-09-23T14:47:31.447Z,100726.07
2018-09-23T14:49:59.826Z,100745.25
2018-09-23T14:52:28.297Z,100753.96
2018-09-23T14:54:56.792Z,100768.35
2018-09-23T14:57:25.098Z,100761.83
2018-09-23T14:59:54.367Z,100752.70
2018-09-23T15:02:21.898Z,100767.98
2018-09-23T15:04:50.265Z,100760.56
2018-09-23T15:07:18.661Z,100734.45
2018-09-23T15:09:47.032Z,100736.65
2018-09-23T15:12:15.458Z,100734.91
2018-09-23T15:14:43.834Z,100701.84
2018-09-23T15:17:12.246Z,100686.59
2018-09-23T15:19:40.614Z,100657.90
2018-09-23T15:22:09.445Z,100658.78
2018-09-23T15:24:37.842Z,100690.11
2018-09-23T15:27:06.538Z,100700.12
2018-09-23T15:29:34.940Z,100677.50
2018-09-23T15:32:03.317Z,100637.05
2018-09-23T15:34:31.714Z,100646.20
2018-09-23T15:37:00.082Z,100674.91
2018-09-23T15:39:28.481Z,100667.96
2018-09-23T15:41:56.863Z,100663.19
2018-09-23T15:44:25.265Z,100678.42
2018-09-23T15:46:53.650Z,100675.83
2018-09-23T15:49:22.050Z,100668.84
2018-09-23T15:51:50.442Z,100650.56
2018-09-23T15:54:18.841Z,100647.54
2018-09-23T15:56:47.259Z,100672.74
2018-09-23T15:59:15.660Z,100687.55
2018-09-23T16:01:44.034Z,100680.59
2018-09-23T16:04:12.443Z,100675.80
2018-09-23T16:06:40.814Z,100674.50
2018-09-23T16:09:09.806Z,100665.80
2018-09-23T16:11:38.682Z,100682.34
2018-09-23T16:14:07.299Z,100708.45
2018-09-23T16:16:35.678Z,100685.39
2018-09-23T16:19:04.147Z,100664.97
2018-09-23T16:21:34.374Z,100642.80
2018-09-23T16:24:02.981Z,100649.34
2018-09-23T16:26:31.818Z,100644.95
2018-09-23T16:29:00.425Z,100656.72
2018-09-23T16:31:28.824Z,100627.15
2018-09-23T16:33:57.230Z,100654.11
2018-09-23T16:36:25.750Z,100675.84
2018-09-23T16:38:54.316Z,100652.83
2018-09-23T16:41:22.750Z,100630.66
2018-09-23T16:43:51.218Z,100631.52
2018-09-23T16:46:19.617Z,100648.91
2018-09-23T16:48:48.202Z,100662.40
2018-09-23T16:51:16.598Z,100658.48
2018-09-23T16:53:45.002Z,100655.01
2018-09-23T16:56:13.446Z,100626.34
2018-09-23T16:58:41.860Z,100612.00
2018-09-23T17:01:10.244Z,100597.20
2018-09-23T17:03:38.650Z,100604.17
2018-09-23T17:06:07.033Z,100594.17
2018-09-23T17:08:35.458Z,100566.37
2018-09-23T17:11:03.837Z,100546.80
2018-09-23T17:13:32.218Z,100550.71
2018-09-23T17:16:00.713Z,100565.95
2018-09-23T17:18:29.137Z,100571.59
2018-09-23T17:20:57.543Z,100565.92
2018-09-23T17:23:25.921Z,100576.81
2018-09-23T17:25:54.346Z,100584.18
2018-09-23T17:28:22.741Z,100583.75
2018-09-23T17:30:51.351Z,100604.18
2018-09-23T17:33:19.726Z,100611.98
2018-09-23T17:35:48.118Z,100616.34
2018-09-23T17:38:16.506Z,100625.88
2018-09-23T17:40:44.965Z,100639.35
2018-09-23T17:43:13.319Z,100635.45
2018-09-23T17:45:41.730Z,100628.91
2018-09-23T17:48:10.107Z,100645.42
2018-09-23T17:50:38.511Z,100655.84
2018-09-23T17:53:06.951Z,100661.05
2018-09-23T17:55:35.379Z,100675.38
2018-09-23T17:58:03.775Z,100678.83
2018-09-23T18:00:32.182Z,100666.25
2018-09-23T18:03:00.559Z,100663.63
2018-09-23T18:05:30.526Z,100661.44
2018-09-23T18:07:58.989Z,100659.23
2018-09-23T18:10:27.366Z,100647.97
2018-09-23T18:12:55.755Z,100664.46
2018-09-23T18:15:24.149Z,100680.09
2018-09-23T18:17:52.528Z,100670.09
2018-09-23T18:20:20.921Z,100666.63
2018-09-23T18:22:49.302Z,100668.80
2018-09-23T18:25:17.718Z,100682.70
2018-09-23T18:27:46.091Z,100681.37
2018-09-23T18:30:14.481Z,100692.22
2018-09-23T18:32:43.171Z,100693.09
2018-09-23T18:35:11.605Z,100702.62
2018-09-23T18:37:40.004Z,100705.66
2018-09-23T18:40:08.530Z,100700.01
2018-09-23T18:42:36.923Z,100704.77
2018-09-23T18:45:05.462Z,100708.67
2018-09-23T18:47:33.836Z,100710.81
2018-09-23T18:50:02.507Z,100720.80
2018-09-23T18:52:30.873Z,100724.69
2018-09-23T18:55:04.612Z,100722.52
2018-09-23T18:57:32.990Z,100728.58
2018-09-23T19:00:01.406Z,100729.00
2018-09-23T19:02:29.797Z,100732.44
2018-09-23T19:04:58.250Z,100722.48
2018-09-23T19:07:26.642Z,100724.63
2018-09-23T19:09:55.009Z,100720.28
2018-09-23T19:12:23.402Z,100722.84
2018-09-23T19:14:51.777Z,100724.14
2018-09-23T19:17:20.167Z,100726.29
2018-09-23T19:19:54.010Z,100728.88
2018-09-23T19:22:27.739Z,100724.95
2018-09-23T19:24:56.154Z,100730.16
2018-09-23T19:27:24.738Z,100743.16
2018-09-23T19:29:53.138Z,100737.91
2018-09-23T19:32:21.555Z,100740.94
2018-09-23T19:34:49.934Z,100743.49
2018-09-23T19:37:18.334Z,100746.95
2018-09-23T19:39:46.907Z,100756.47
2018-09-23T19:42:15.311Z,100758.61
2018-09-23T19:44:43.682Z,100765.53
2018-09-23T19:47:12.070Z,100775.06
2018-09-23T19:49:40.442Z,100778.91
2018-09-23T19:52:08.838Z,100780.20
2018-09-23T19:54:37.214Z,100781.05
2018-09-23T19:57:05.634Z,100786.25
2018-09-23T19:59:34.007Z,100791.84
2018-09-23T20:02:02.469Z,100800.91
2018-09-23T20:04:30.840Z,100809.99
2018-09-23T20:06:59.300Z,100817.77
2018-09-23T20:09:27.649Z,100817.31
2018-09-23T20:11:56.050Z,100821.62
2018-09-23T20:14:24.447Z,100825.94
2018-09-23T20:16:52.847Z,100832.44
2018-09-23T20:19:21.218Z,100827.64
2018-09-23T20:21:49.610Z,100835.85
2018-09-23T20:24:17.994Z,100844.48
2018-09-23T20:26:46.410Z,100846.20
2018-09-23T20:29:14.785Z,100851.39
2018-09-23T20:31:43.190Z,100852.23
2018-09-23T20:34:11.565Z,100860.87
2018-09-23T20:36:39.989Z,100863.04
2018-09-23T20:39:09.458Z,100863.04
2018-09-23T20:41:37.859Z,100864.77
2018-09-23T20:44:06.250Z,100872.55
2018-09-23T20:46:34.653Z,100872.11
2018-09-23T20:49:03.026Z,100875.08
2018-09-23T20:51:31.418Z,100878.52
2018-09-23T20:53:59.787Z,100883.28
2018-09-23T20:56:28.178Z,100884.12
2018-09-23T20:58:56.542Z,100882.36
2018-09-23T21:01:24.919Z,100882.32
2018-09-23T21:03:53.315Z,100883.19
2018-09-23T21:06:21.681Z,100890.55
2018-09-23T21:08:50.078Z,100887.48
2018-09-23T21:11:18.450Z,100893.12
2018-09-23T21:13:46.846Z,100896.16
2018-09-23T21:16:15.223Z,100907.38
2018-09-23T21:18:43.622Z,100909.98
2018-09-23T21:21:11.992Z,100917.78
2018-09-23T21:23:40.390Z,100919.95
2018-09-23T21:26:08.799Z,100917.34
2018-09-23T21:28:37.190Z,100924.67
2018-09-23T21:31:05.829Z,100922.91
2018-09-23T21:33:34.214Z,100940.63
2018-09-23T21:36:02.590Z,100941.03
2018-09-23T21:38:31.043Z,100946.63
2018-09-23T21:40:59.422Z,100946.98
2018-09-23T21:43:27.814Z,100952.15
2018-09-23T21:45:56.187Z,100954.24
2018-09-23T21:48:24.586Z,100959.40
2018-09-23T21:50:52.951Z,100955.86
2018-09-23T21:53:21.350Z,100963.15
2018-09-23T21:55:49.714Z,100967.88
2018-09-23T21:58:18.118Z,100973.02
2018-09-23T22:00:46.486Z,100969.48
2018-09-23T22:03:15.316Z,100964.25
2018-09-23T22:05:43.693Z,100967.24
2018-09-23T22:08:12.677Z,100981.91
2018-09-23T22:10:41.040Z,100979.23
2018-09-23T22:13:09.437Z,100990.44
2018-09-23T22:15:37.822Z,100995.16
2018-09-23T22:18:06.217Z,100996.81
2018-09-23T22:20:34.590Z,100998.02
2018-09-23T22:23:02.982Z,100998.84
2018-09-23T22:25:31.398Z,100997.45
2018-09-23T22:27:59.791Z,100999.53
2018-09-23T22:30:28.160Z,101004.62
2018-09-23T22:32:56.545Z,101013.63
2018-09-23T22:35:24.906Z,101019.59
2018-09-23T22:37:53.365Z,101012.19
2018-09-23T22:40:21.742Z,101020.30
2018-09-23T22:42:50.154Z,101028.86
2018-09-23T22:45:18.526Z,101029.66
2018-09-23T22:47:46.950Z,101036.53
2018-09-23T22:50:15.313Z,101045.52
2018-09-23T22:52:43.680Z,101051.08
2018-09-23T22:55:12.081Z,101048.83
2018-09-23T22:57:40.453Z,101055.68
2018-09-23T23:00:08.850Z,101055.20
2018-09-23T23:02:37.225Z,101060.33
2018-09-23T23:05:05.629Z,101068.41
2018-09-23T23:07:33.997Z,101070.08
2018-09-23T23:10:02.390Z,101080.36
2018-09-23T23:12:30.770Z,101082.89
2018-09-23T23:14:59.167Z,101082.83
2018-09-23T23:17:27.530Z,101087.09
2018-09-23T23:19:55.929Z,101096.11
2018-09-23T23:22:24.305Z,101090.86
2018-09-23T23:24:52.694Z,101095.08
2018-09-23T23:27:21.120Z,101103.23
2018-09-23T23:29:49.493Z,101105.81
2018-09-23T23:32:17.858Z,101113.97
2018-09-23T23:34:46.247Z,101113.90
2018-09-23T23:37:14.606Z,101119.46
2018-09-23T23:39:43.000Z,101122.86
2018-09-23T23:42:11.368Z,101118.91
2018-09-23T23:44:39.758Z,101123.59
2018-09-23T23:47:08.331Z,101131.37
2018-09-23T23:49:36.754Z,101129.09
2018-09-23T23:52:05.146Z,101143.71
2018-09-23T23:54:33.544Z,101150.56
2018-09-23T23:57:01.914Z,101156.17
2018-09-23T23:59:30.313Z,101170.37
